createdAt,value
2018-12-17T00:00:15.837Z,0.89
2018-12-17T00:01:15.943Z,0.63
2018-12-17T00:02:16.252Z,0.83
2018-12-17T00:03:16.222Z,1.03
2018-12-17T00:04:16.523Z,0.69
2018-12-17T00:05:16.858Z,0.38
2018-12-17T00:06:17.191Z,0.80
2018-12-17T00:07:17.421Z,0.76
2018-12-17T00:08:17.702Z,0.93
2018-12-17T00:09:18.593Z,0.65
2018-12-17T00:10:19.307Z,1.19
2018-12-17T00:11:19.416Z,1.36
2018-12-17T00:12:19.326Z,1.21
2018-12-17T00:13:20.156Z,1.32
2018-12-17T00:14:20.561Z,0.76
2018-12-17T00:15:21.080Z,0.25
2018-12-17T00:16:20.882Z,0.35
2018-12-17T00:17:21.063Z,0.14
2018-12-17T00:18:21.209Z,0.08
2018-12-17T00:19:21.415Z,0.03
2018-12-17T00:20:21.631Z,0.00
2018-12-17T00:21:21.632Z,0.01
2018-12-17T00:22:22.033Z,0.01
2018-12-17T00:23:22.461Z,0.06
2018-12-17T00:24:22.838Z,0.00
2018-12-17T00:25:22.883Z,0.00
2018-12-17T00:26:22.938Z,0.07
2018-12-17T00:27:22.985Z,0.28
2018-12-17T00:28:23.219Z,0.42
2018-12-17T00:30:23.619Z,0.76
2018-12-17T00:31:23.978Z,0.57
2018-12-17T00:32:24.002Z,0.39
2018-12-17T00:33:24.299Z,0.41
2018-12-17T00:34:24.879Z,0.60
2018-12-17T00:35:24.647Z,0.96
2018-12-17T00:36:25.005Z,0.55
2018-12-17T00:37:25.338Z,0.15
2018-12-17T00:38:25.671Z,0.52
2018-12-17T00:39:25.968Z,0.95
2018-12-17T00:40:26.276Z,1.18
2018-12-17T00:41:26.909Z,1.25
2018-12-17T00:42:26.705Z,0.55
2018-12-17T00:43:27.022Z,0.20
2018-12-17T00:44:27.331Z,0.08
2018-12-17T00:45:27.730Z,0.81
2018-12-17T00:46:28.063Z,0.98
2018-12-17T00:47:28.421Z,1.07
2018-12-17T00:48:28.769Z,0.66
2018-12-17T00:49:29.173Z,0.39
2018-12-17T00:50:29.443Z,0.06
2018-12-17T00:51:29.676Z,0.29
2018-12-17T00:52:29.948Z,0.70
2018-12-17T00:53:30.192Z,0.51
2018-12-17T00:54:30.512Z,0.45
2018-12-17T00:55:31.014Z,0.74
2018-12-17T00:56:31.251Z,0.29
2018-12-17T00:57:31.744Z,0.01
2018-12-17T00:58:32.039Z,0.00
2018-12-17T00:59:32.351Z,0.00
2018-12-17T01:00:32.948Z,0.01
2018-12-17T01:01:32.773Z,0.15
2018-12-17T01:02:33.573Z,0.37
2018-12-17T01:03:34.095Z,0.03
2018-12-17T01:04:34.200Z,0.52
2018-12-17T01:05:34.309Z,0.62
2018-12-17T01:06:34.622Z,0.90
2018-12-17T01:07:34.939Z,1.70
2018-12-17T01:08:35.256Z,1.10
2018-12-17T01:09:35.562Z,1.59
2018-12-17T01:10:35.839Z,1.45
2018-12-17T01:11:36.090Z,1.35
2018-12-17T01:12:36.196Z,1.47
2018-12-17T01:13:36.520Z,1.41
2018-12-17T01:14:36.916Z,0.94
2018-12-17T01:15:36.809Z,1.16
2018-12-17T01:16:37.307Z,1.11
2018-12-17T01:17:37.209Z,1.14
2018-12-17T01:18:37.408Z,1.19
2018-12-17T01:19:37.495Z,1.07
2018-12-17T01:20:37.616Z,1.25
2018-12-17T01:21:37.649Z,1.63
2018-12-17T01:22:37.785Z,1.68
2018-12-17T01:23:37.834Z,1.77
2018-12-17T01:24:37.986Z,1.78
2018-12-17T01:25:38.059Z,1.39
2018-12-17T01:26:38.098Z,1.85
2018-12-17T01:27:38.243Z,1.58
2018-12-17T01:28:38.355Z,1.62
2018-12-17T01:29:38.550Z,1.79
2018-12-17T01:30:38.813Z,1.39
2018-12-17T01:31:38.871Z,1.06
2018-12-17T01:32:38.993Z,1.32
2018-12-17T01:33:38.962Z,1.31
2018-12-17T01:34:39.621Z,1.11
2018-12-17T01:35:39.748Z,0.73
2018-12-17T01:36:39.509Z,0.75
2018-12-17T01:37:39.857Z,0.31
2018-12-17T01:38:40.218Z,0.52
2018-12-17T01:39:40.460Z,0.81
2018-12-17T01:40:40.706Z,0.24
2018-12-17T01:41:41.190Z,0.49
2018-12-17T01:42:41.536Z,0.95
2018-12-17T01:43:41.771Z,0.46
2018-12-17T01:44:42.079Z,0.27
2018-12-17T01:45:42.383Z,0.24
2018-12-17T01:46:42.696Z,0.15
2018-12-17T01:47:42.918Z,0.31
2018-12-17T01:48:43.391Z,0.58
2018-12-17T01:49:43.741Z,0.62
2018-12-17T01:50:44.090Z,0.60
2018-12-17T01:51:44.341Z,0.69
2018-12-17T01:52:44.589Z,0.69
2018-12-17T01:53:44.936Z,0.52
2018-12-17T01:54:45.239Z,0.58
2018-12-17T01:55:45.567Z,0.59
2018-12-17T01:56:45.928Z,0.53
2018-12-17T01:57:46.308Z,0.73
2018-12-17T01:58:46.672Z,0.55
2018-12-17T01:59:47.165Z,0.24
2018-12-17T02:00:47.511Z,0.56
2018-12-17T02:01:47.834Z,0.65
2018-12-17T02:02:49.015Z,0.56
2018-12-17T02:03:49.136Z,0.62
2018-12-17T02:04:49.021Z,0.24
2018-12-17T02:05:49.638Z,0.38
2018-12-17T02:06:49.863Z,0.55
2018-12-17T02:07:50.098Z,0.35
2018-12-17T02:08:50.396Z,0.37
2018-12-17T02:09:50.489Z,0.21
2018-12-17T02:10:50.772Z,0.00
2018-12-17T02:11:51.123Z,0.01
2018-12-17T02:12:51.438Z,0.01
2018-12-17T02:13:51.662Z,0.14
2018-12-17T02:14:51.963Z,0.44
2018-12-17T02:15:52.063Z,0.08
2018-12-17T02:16:52.067Z,0.00
2018-12-17T02:17:51.962Z,0.00
2018-12-17T02:18:52.184Z,0.00
2018-12-17T02:19:52.407Z,0.00
2018-12-17T02:20:52.538Z,0.00
2018-12-17T02:21:52.650Z,0.00
2018-12-17T02:22:52.716Z,0.00
2018-12-17T02:23:52.827Z,0.32
2018-12-17T02:24:52.923Z,0.55
2018-12-17T02:25:52.974Z,0.27
2018-12-17T02:26:53.012Z,0.01
2018-12-17T02:27:53.057Z,0.00
2018-12-17T02:28:53.116Z,0.35
2018-12-17T02:29:53.378Z,0.44
2018-12-17T02:30:53.463Z,0.37
2018-12-17T02:31:53.569Z,0.41
2018-12-17T02:32:53.681Z,0.25
2018-12-17T02:33:53.720Z,0.44
2018-12-17T02:34:53.914Z,0.30
2018-12-17T02:35:53.940Z,0.34
2018-12-17T02:36:54.154Z,0.40
2018-12-17T02:37:54.237Z,0.52
2018-12-17T02:38:54.244Z,0.68
2018-12-17T02:39:54.495Z,0.41
2018-12-17T02:40:54.787Z,0.24
2018-12-17T02:41:54.613Z,0.00
2018-12-17T02:42:55.085Z,0.00
2018-12-17T02:43:55.383Z,0.00
2018-12-17T02:44:55.662Z,0.00
2018-12-17T02:45:55.918Z,0.01
2018-12-17T02:46:56.259Z,0.42
2018-12-17T02:47:56.767Z,0.39
2018-12-17T02:48:56.616Z,0.64
2018-12-17T02:49:56.935Z,0.42
2018-12-17T02:50:57.256Z,0.37
2018-12-17T02:51:57.875Z,0.73
2018-12-17T02:52:57.672Z,0.79
2018-12-17T02:53:58.094Z,0.72
2018-12-17T02:54:58.488Z,0.14
2018-12-17T02:55:58.701Z,0.06
2018-12-17T02:56:59.230Z,0.00
2018-12-17T02:57:59.545Z,0.00
2018-12-17T02:58:59.947Z,0.14
2018-12-17T03:00:00.442Z,1.04
2018-12-17T03:01:00.661Z,1.08
2018-12-17T03:02:00.475Z,0.63
2018-12-17T03:03:01.216Z,0.70
2018-12-17T03:04:01.496Z,0.15
2018-12-17T03:05:02.028Z,0.00
2018-12-17T03:06:01.630Z,0.00
2018-12-17T03:07:01.966Z,0.00
2018-12-17T03:08:01.733Z,0.00
2018-12-17T03:09:02.378Z,0.00
2018-12-17T03:10:03.086Z,0.00
2018-12-17T03:11:02.739Z,0.00
2018-12-17T03:12:02.992Z,0.00
2018-12-17T03:13:03.505Z,0.00
2018-12-17T03:14:03.204Z,0.32
2018-12-17T03:15:03.935Z,0.76
2018-12-17T03:16:04.244Z,0.30
2018-12-17T03:17:04.557Z,0.00
2018-12-17T03:18:04.532Z,0.00
2018-12-17T03:19:05.387Z,0.00
2018-12-17T03:20:05.810Z,0.46
2018-12-17T03:21:06.323Z,0.48
2018-12-17T03:22:06.017Z,0.56
2018-12-17T03:23:06.540Z,0.41
2018-12-17T03:24:06.540Z,0.18
2018-12-17T03:25:06.248Z,0.44
2018-12-17T03:26:06.619Z,0.75
2018-12-17T03:27:06.756Z,0.83
2018-12-17T03:28:06.965Z,0.41
2018-12-17T03:29:06.969Z,0.45
2018-12-17T03:30:07.193Z,0.41
2018-12-17T03:31:07.083Z,0.10
2018-12-17T03:32:07.457Z,0.60
2018-12-17T03:33:07.548Z,0.53
2018-12-17T03:34:07.507Z,0.79
2018-12-17T03:35:08.064Z,0.85
2018-12-17T03:36:08.103Z,0.97
2018-12-17T03:37:08.268Z,1.35
2018-12-17T03:38:08.006Z,1.16
2018-12-17T03:39:08.667Z,0.72
2018-12-17T03:40:08.750Z,0.85
2018-12-17T03:41:08.485Z,0.97
2018-12-17T03:42:09.146Z,0.81
2018-12-17T03:43:09.586Z,1.56
2018-12-17T03:44:09.466Z,1.37
2018-12-17T03:45:09.872Z,1.33
2018-12-17T03:46:10.388Z,1.32
2018-12-17T03:47:10.205Z,1.10
2018-12-17T03:48:10.720Z,1.18
2018-12-17T03:49:10.521Z,1.14
2018-12-17T03:50:10.804Z,0.84
2018-12-17T03:51:11.481Z,0.69
2018-12-17T03:52:11.552Z,0.82
2018-12-17T03:53:11.366Z,1.17
2018-12-17T03:54:11.882Z,0.84
2018-12-17T03:55:11.645Z,1.50
2018-12-17T03:56:11.967Z,0.80
2018-12-17T03:57:12.319Z,0.70
2018-12-17T03:58:12.689Z,0.97
2018-12-17T04:00:12.981Z,1.04
2018-12-17T04:01:13.259Z,0.90
2018-12-17T04:02:13.736Z,0.34
2018-12-17T04:03:13.998Z,0.56
2018-12-17T04:04:14.429Z,0.65
2018-12-17T04:05:15.017Z,1.03
2018-12-17T04:06:15.041Z,1.16
2018-12-17T04:07:14.785Z,0.82
2018-12-17T04:08:15.153Z,1.06
2018-12-17T04:09:15.465Z,1.19
2018-12-17T04:10:16.273Z,1.26
2018-12-17T04:11:16.104Z,0.84
2018-12-17T04:12:16.420Z,0.60
2018-12-17T04:13:16.686Z,0.74
2018-12-17T04:14:16.952Z,0.75
2018-12-17T04:15:17.051Z,0.82
2018-12-17T04:16:17.316Z,0.29
2018-12-17T04:17:17.828Z,0.88
2018-12-17T04:18:17.677Z,0.69
2018-12-17T04:19:18.167Z,0.63
2018-12-17T04:20:19.208Z,0.50
2018-12-17T04:21:19.307Z,0.07
2018-12-17T04:22:19.319Z,0.10
2018-12-17T04:23:19.423Z,0.16
2018-12-17T04:24:19.734Z,0.77
2018-12-17T04:25:20.056Z,1.12
2018-12-17T04:26:20.373Z,0.96
2018-12-17T04:27:20.677Z,0.95
2018-12-17T04:28:20.989Z,0.84
2018-12-17T04:29:21.127Z,0.70
2018-12-17T04:30:21.220Z,0.76
2018-12-17T04:32:21.736Z,0.73
2018-12-17T04:33:21.951Z,0.67
2018-12-17T04:34:21.933Z,0.65
2018-12-17T04:35:22.057Z,0.44
2018-12-17T04:36:22.041Z,0.00
2018-12-17T04:37:22.101Z,0.35
2018-12-17T04:38:22.436Z,0.51
2018-12-17T04:39:22.521Z,0.15
2018-12-17T04:40:22.547Z,0.00
2018-12-17T04:41:22.599Z,0.00
2018-12-17T04:42:22.657Z,0.00
2018-12-17T04:43:22.798Z,0.00
2018-12-17T04:44:22.834Z,0.46
2018-12-17T04:45:22.876Z,0.27
2018-12-17T04:46:22.921Z,0.01
2018-12-17T04:47:22.882Z,0.00
2018-12-17T04:48:23.567Z,0.00
2018-12-17T04:49:23.782Z,0.00
2018-12-17T04:50:23.873Z,0.13
2018-12-17T04:51:23.884Z,0.58
2018-12-17T04:52:23.916Z,0.58
2018-12-17T04:53:23.875Z,0.47
2018-12-17T04:54:24.235Z,0.50
2018-12-17T04:55:24.868Z,0.28
2018-12-17T04:56:24.706Z,0.08
2018-12-17T04:57:24.964Z,0.01
2018-12-17T04:58:25.345Z,0.00
2018-12-17T04:59:25.624Z,0.00
2018-12-17T05:00:25.941Z,0.04
2018-12-17T05:01:26.292Z,0.00
2018-12-17T05:02:26.537Z,0.00
2018-12-17T05:03:26.798Z,0.00
2018-12-17T05:04:27.125Z,0.00
2018-12-17T05:05:27.412Z,0.00
2018-12-17T05:06:27.706Z,0.42
2018-12-17T05:07:28.029Z,0.63
2018-12-17T05:08:28.331Z,0.60
2018-12-17T05:09:28.644Z,0.56
2018-12-17T05:10:28.975Z,0.20
2018-12-17T05:11:29.274Z,0.22
2018-12-17T05:12:29.719Z,0.58
2018-12-17T05:13:30.147Z,0.55
2018-12-17T05:14:30.670Z,0.46
2018-12-17T05:15:30.500Z,0.86
2018-12-17T05:16:30.853Z,0.27
2018-12-17T05:17:31.105Z,0.18
2018-12-17T05:18:31.371Z,0.44
2018-12-17T05:19:31.688Z,0.38
2018-12-17T05:20:32.046Z,0.55
2018-12-17T05:21:32.576Z,0.45
2018-12-17T05:22:32.409Z,0.30
2018-12-17T05:23:33.020Z,0.17
2018-12-17T05:24:32.926Z,0.58
2018-12-17T05:25:33.866Z,0.62
2018-12-17T05:26:34.578Z,0.45
2018-12-17T05:27:34.795Z,0.27
2018-12-17T05:28:35.103Z,0.01
2018-12-17T05:29:35.421Z,0.34
2018-12-17T05:30:35.740Z,0.50
2018-12-17T05:31:35.994Z,0.11
2018-12-17T05:32:36.359Z,0.42
2018-12-17T05:33:36.467Z,0.35
2018-12-17T05:34:36.584Z,0.01
2018-12-17T05:35:36.800Z,0.11
2018-12-17T05:36:36.904Z,0.29
2018-12-17T05:37:36.896Z,0.27
2018-12-17T05:38:36.810Z,0.00
2018-12-17T05:39:37.429Z,0.00
2018-12-17T05:40:37.531Z,0.37
2018-12-17T05:41:37.283Z,0.35
2018-12-17T05:42:37.555Z,0.11
2018-12-17T05:43:38.721Z,0.10
2018-12-17T05:44:37.737Z,0.00
2018-12-17T05:45:37.799Z,0.00
2018-12-17T05:46:37.851Z,0.00
2018-12-17T05:47:37.907Z,0.00
2018-12-17T05:48:37.953Z,0.24
2018-12-17T05:49:37.989Z,0.32
2018-12-17T05:50:38.225Z,0.35
2018-12-17T05:51:38.319Z,0.35
2018-12-17T05:52:38.517Z,0.35
2018-12-17T05:54:38.721Z,0.00
2018-12-17T05:55:38.813Z,0.00
2018-12-17T05:56:38.842Z,0.08
2018-12-17T05:57:38.966Z,0.35
2018-12-17T05:58:39.069Z,0.27
2018-12-17T05:59:39.027Z,0.18
2018-12-17T06:00:39.376Z,0.03
2018-12-17T06:01:39.688Z,0.00
2018-12-17T06:02:39.957Z,0.00
2018-12-17T06:03:40.274Z,0.18
2018-12-17T06:04:40.626Z,0.87
2018-12-17T06:05:40.895Z,0.39
2018-12-17T06:06:41.509Z,0.49
2018-12-17T06:07:41.331Z,0.06
2018-12-17T06:08:41.647Z,0.11
2018-12-17T06:09:42.501Z,0.25
2018-12-17T06:10:42.273Z,0.53
2018-12-17T06:11:42.815Z,0.10
2018-12-17T06:12:42.596Z,0.56
2018-12-17T06:13:42.909Z,0.45
2018-12-17T06:14:43.313Z,0.08
2018-12-17T06:15:43.639Z,0.17
2018-12-17T06:16:43.957Z,0.00
2018-12-17T06:17:44.259Z,0.14
2018-12-17T06:18:44.580Z,0.60
2018-12-17T06:19:44.950Z,0.94
2018-12-17T06:20:45.384Z,0.25
2018-12-17T06:21:45.734Z,0.01
2018-12-17T06:22:46.071Z,0.51
2018-12-17T06:23:46.347Z,0.17
2018-12-17T06:24:46.832Z,0.48
2018-12-17T06:25:47.072Z,0.77
2018-12-17T06:26:47.384Z,0.28
2018-12-17T06:27:47.897Z,0.34
2018-12-17T06:28:47.896Z,0.24
2018-12-17T06:29:47.886Z,0.78
2018-12-17T06:30:49.128Z,0.39
2018-12-17T06:31:49.132Z,0.60
2018-12-17T06:32:49.244Z,0.40
2018-12-17T06:33:49.506Z,0.77
2018-12-17T06:34:50.021Z,0.42
2018-12-17T06:35:49.568Z,0.89
2018-12-17T06:36:49.985Z,0.58
2018-12-17T06:37:50.197Z,0.38
2018-12-17T06:38:50.617Z,0.07
2018-12-17T06:39:51.217Z,0.70
2018-12-17T06:40:51.007Z,0.32
2018-12-17T06:41:51.247Z,0.13
2018-12-17T06:42:51.297Z,0.22
2018-12-17T06:43:51.666Z,0.27
2018-12-17T06:44:51.887Z,0.15
2018-12-17T06:45:52.063Z,0.20
2018-12-17T06:46:51.796Z,0.49
2018-12-17T06:47:52.155Z,0.20
2018-12-17T06:48:52.372Z,0.90
2018-12-17T06:49:52.459Z,0.45
2018-12-17T06:50:52.589Z,0.24
2018-12-17T06:51:52.678Z,0.06
2018-12-17T06:52:52.737Z,0.00
2018-12-17T06:53:52.810Z,0.21
2018-12-17T06:54:54.965Z,0.59
2018-12-17T06:55:52.916Z,0.30
2018-12-17T06:56:52.949Z,0.54
2018-12-17T06:57:52.993Z,0.72
2018-12-17T06:58:53.117Z,0.37
2018-12-17T06:59:53.214Z,0.89
2018-12-17T07:00:53.304Z,0.37
2018-12-17T07:01:53.409Z,0.21
2018-12-17T07:02:53.634Z,0.07
2018-12-17T07:03:53.840Z,0.00
2018-12-17T07:04:53.963Z,0.52
2018-12-17T07:05:54.316Z,0.65
2018-12-17T07:06:54.105Z,0.60
2018-12-17T07:07:54.599Z,0.84
2018-12-17T07:08:54.942Z,0.85
2018-12-17T07:09:55.209Z,0.73
2018-12-17T07:10:55.592Z,0.73
2018-12-17T07:11:55.878Z,0.56
2018-12-17T07:12:56.119Z,0.14
2018-12-17T07:13:56.404Z,0.56
2018-12-17T07:14:56.780Z,0.27
2018-12-17T07:15:57.146Z,0.06
2018-12-17T07:16:57.516Z,0.00
2018-12-17T07:17:57.973Z,0.03
2018-12-17T07:18:58.280Z,0.38
2018-12-17T07:19:58.752Z,0.25
2018-12-17T07:20:59.112Z,0.45
2018-12-17T07:21:59.419Z,0.94
2018-12-17T07:22:59.652Z,0.73
2018-12-17T07:24:00.178Z,0.07
2018-12-17T07:25:00.843Z,0.53
2018-12-17T07:26:01.254Z,0.15
2018-12-17T07:27:01.112Z,0.17
2018-12-17T07:28:01.402Z,0.01
2018-12-17T07:29:02.101Z,0.01
2018-12-17T07:30:02.188Z,0.97
2018-12-17T07:31:02.449Z,0.60
2018-12-17T07:32:02.680Z,0.70
2018-12-17T07:33:02.757Z,0.24
2018-12-17T07:34:02.491Z,0.54
2018-12-17T07:35:03.573Z,0.51
2018-12-17T07:36:03.378Z,0.85
2018-12-17T07:37:03.793Z,1.00
2018-12-17T07:38:04.519Z,0.52
2018-12-17T07:39:04.421Z,0.82
2018-12-17T07:40:05.442Z,0.98
2018-12-17T07:41:05.567Z,1.19
2018-12-17T07:42:06.076Z,1.93
2018-12-17T07:43:06.092Z,2.31
2018-12-17T07:44:06.603Z,1.33
2018-12-17T07:45:06.469Z,0.69
2018-12-17T07:46:06.814Z,1.07
2018-12-17T07:47:06.920Z,0.93
2018-12-17T07:48:07.058Z,0.97
2018-12-17T07:49:07.103Z,1.20
2018-12-17T07:50:07.128Z,0.89
2018-12-17T07:51:07.165Z,1.11
2018-12-17T07:52:07.421Z,1.23
2018-12-17T07:53:07.532Z,1.74
2018-12-17T07:54:07.690Z,1.61
2018-12-17T07:55:07.734Z,1.56
2018-12-17T07:56:07.787Z,1.09
2018-12-17T07:57:07.846Z,0.89
2018-12-17T07:58:07.584Z,0.41
2018-12-17T07:59:08.033Z,0.46
2018-12-17T08:00:08.711Z,1.02
2018-12-17T08:01:08.957Z,1.44
2018-12-17T08:02:09.211Z,1.24
2018-12-17T08:03:09.225Z,0.80
2018-12-17T08:04:09.291Z,1.07
2018-12-17T08:05:09.360Z,1.62
2018-12-17T08:06:09.356Z,1.25
2018-12-17T08:07:09.545Z,2.43
2018-12-17T08:08:09.589Z,1.41
2018-12-17T08:09:09.914Z,1.83
2018-12-17T08:10:09.957Z,1.63
2018-12-17T08:11:09.781Z,1.38
2018-12-17T08:12:10.177Z,1.03
2018-12-17T08:13:10.683Z,1.39
2018-12-17T08:14:11.018Z,1.79
2018-12-17T08:15:11.274Z,1.04
2018-12-17T08:16:11.727Z,1.08
2018-12-17T08:17:12.325Z,1.16
2018-12-17T08:18:12.185Z,0.86
2018-12-17T08:19:12.481Z,1.08
2018-12-17T08:20:12.793Z,1.39
2018-12-17T08:21:13.147Z,1.28
2018-12-17T08:22:13.484Z,1.28
2018-12-17T08:23:13.740Z,1.46
2018-12-17T08:24:14.328Z,1.71
2018-12-17T08:25:14.555Z,1.69
2018-12-17T08:26:14.378Z,2.38
2018-12-17T08:27:14.820Z,2.64
2018-12-17T08:28:15.099Z,1.86
2018-12-17T08:29:15.695Z,0.70
2018-12-17T08:30:15.901Z,0.96
2018-12-17T08:31:15.738Z,1.34
2018-12-17T08:32:16.267Z,0.93
2018-12-17T08:33:16.055Z,1.28
2018-12-17T08:34:16.484Z,2.44
2018-12-17T08:35:16.798Z,1.92
2018-12-17T08:36:17.148Z,3.01
2018-12-17T08:37:17.384Z,0.80
2018-12-17T08:38:17.630Z,1.07
2018-12-17T08:39:18.223Z,0.98
2018-12-17T08:40:18.643Z,1.03
2018-12-17T08:41:19.100Z,0.81
2018-12-17T08:42:19.898Z,0.94
2018-12-17T08:43:20.096Z,0.46
2018-12-17T08:44:20.510Z,0.46
2018-12-17T08:45:20.802Z,0.63
2018-12-17T08:46:21.242Z,0.39
2018-12-17T08:47:21.305Z,0.81
2018-12-17T08:48:21.256Z,0.55
2018-12-17T08:49:21.873Z,0.43
2018-12-17T08:50:21.963Z,0.45
2018-12-17T08:51:22.077Z,0.77
2018-12-17T08:52:22.165Z,0.32
2018-12-17T08:53:22.190Z,0.62
2018-12-17T08:54:22.169Z,0.69
2018-12-17T08:55:22.348Z,0.49
2018-12-17T08:56:22.475Z,0.44
2018-12-17T08:57:22.994Z,0.48
2018-12-17T08:58:22.534Z,0.31
2018-12-17T08:59:22.734Z,0.45
2018-12-17T09:00:22.867Z,0.66
2018-12-17T09:01:22.902Z,1.44
2018-12-17T09:02:23.064Z,0.82
2018-12-17T09:03:23.118Z,0.93
2018-12-17T09:04:23.199Z,0.93
2018-12-17T09:05:23.398Z,0.45
2018-12-17T09:06:23.489Z,0.59
2018-12-17T09:07:23.607Z,1.07
2018-12-17T09:08:23.715Z,1.08
2018-12-17T09:09:23.794Z,1.28
2018-12-17T09:10:23.875Z,0.61
2018-12-17T09:11:24.049Z,1.08
2018-12-17T09:12:24.173Z,0.63
2018-12-17T09:13:24.518Z,1.00
2018-12-17T09:14:24.562Z,0.38
2018-12-17T09:15:24.517Z,1.17
2018-12-17T09:16:24.810Z,0.81
2018-12-17T09:17:25.161Z,0.83
2018-12-17T09:18:25.471Z,0.94
2018-12-17T09:19:25.804Z,0.98
2018-12-17T09:20:26.138Z,1.00
2018-12-17T09:21:26.416Z,1.21
2018-12-17T09:22:26.733Z,1.17
2018-12-17T09:23:27.306Z,0.84
2018-12-17T09:24:27.408Z,0.76
2018-12-17T09:25:27.257Z,1.00
2018-12-17T09:26:27.578Z,0.76
2018-12-17T09:27:27.826Z,0.35
2018-12-17T09:28:28.238Z,0.07
2018-12-17T09:29:28.512Z,0.84
2018-12-17T09:30:28.820Z,0.94
2018-12-17T09:31:29.174Z,0.65
2018-12-17T09:32:29.450Z,1.03
2018-12-17T09:33:29.885Z,0.87
2018-12-17T09:34:30.338Z,0.56
2018-12-17T09:35:30.603Z,0.87
2018-12-17T09:36:30.919Z,0.84
2018-12-17T09:37:31.226Z,1.01
2018-12-17T09:38:31.602Z,1.25
2018-12-17T09:39:31.952Z,1.26
2018-12-17T09:40:32.271Z,0.88
2018-12-17T09:41:32.614Z,0.14
2018-12-17T09:42:32.972Z,0.38
2018-12-17T09:43:33.706Z,0.87
2018-12-17T09:44:34.626Z,0.90
2018-12-17T09:45:35.145Z,0.49
2018-12-17T09:46:35.147Z,1.00
2018-12-17T09:47:35.568Z,0.71
2018-12-17T09:48:35.990Z,0.22
2018-12-17T09:49:36.093Z,0.83
2018-12-17T09:50:36.302Z,1.14
2018-12-17T09:51:36.614Z,0.94
2018-12-17T09:52:36.827Z,0.88
2018-12-17T09:53:36.938Z,1.13
2018-12-17T09:54:37.045Z,1.80
2018-12-17T09:55:36.935Z,1.97
2018-12-17T09:56:37.351Z,2.22
2018-12-17T09:57:37.447Z,1.01
2018-12-17T09:58:37.555Z,2.18
2018-12-17T09:59:37.683Z,1.38
2018-12-17T10:00:37.770Z,1.35
2018-12-17T10:01:37.832Z,2.44
2018-12-17T10:02:37.990Z,1.82
2018-12-17T10:03:38.089Z,1.73
2018-12-17T10:04:38.344Z,1.42
2018-12-17T10:05:38.426Z,0.72
2018-12-17T10:06:38.792Z,1.01
2018-12-17T10:07:38.909Z,1.47
2018-12-17T10:08:38.998Z,1.96
2018-12-17T10:09:39.093Z,1.44
2018-12-17T10:10:39.103Z,1.34
2018-12-17T10:11:39.063Z,1.81
2018-12-17T10:12:39.458Z,1.01
2018-12-17T10:13:39.751Z,0.67
2018-12-17T10:14:40.065Z,1.14
2018-12-17T10:15:40.374Z,1.60
2018-12-17T10:17:40.699Z,1.30
2018-12-17T10:18:41.031Z,1.04
2018-12-17T10:19:41.267Z,1.40
2018-12-17T10:20:41.653Z,0.87
2018-12-17T10:21:41.958Z,0.27
2018-12-17T10:22:42.313Z,0.31
2018-12-17T10:23:42.590Z,0.91
2018-12-17T10:24:43.014Z,0.72
2018-12-17T10:25:43.584Z,0.86
2018-12-17T10:27:43.430Z,1.48
2018-12-17T10:28:43.754Z,1.90
2018-12-17T10:29:44.146Z,1.17
2018-12-17T10:30:44.473Z,1.42
2018-12-17T10:31:44.830Z,0.91
2018-12-17T10:32:45.295Z,1.47
2018-12-17T10:33:45.844Z,1.85
2018-12-17T10:34:45.627Z,1.13
2018-12-17T10:35:45.930Z,0.35
2018-12-17T10:36:46.291Z,0.86
2018-12-17T10:37:46.518Z,2.45
2018-12-17T10:38:47.160Z,1.93
2018-12-17T10:39:47.076Z,1.32
2018-12-17T10:40:47.443Z,0.18
2018-12-17T10:41:47.724Z,0.25
2018-12-17T10:42:48.628Z,1.25
2018-12-17T10:44:49.257Z,0.27
2018-12-17T10:45:49.259Z,1.54
2018-12-17T10:46:50.084Z,1.13
2018-12-17T10:47:50.399Z,0.56
2018-12-17T10:48:50.925Z,0.73
2018-12-17T10:49:50.909Z,2.02
2018-12-17T10:50:51.441Z,2.05
2018-12-17T10:51:51.184Z,2.00
2018-12-17T10:52:51.354Z,0.82
2018-12-17T10:53:51.570Z,0.52
2018-12-17T10:54:51.876Z,0.80
2018-12-17T10:55:51.978Z,1.01
2018-12-17T10:56:51.878Z,0.89
2018-12-17T10:57:52.361Z,1.21
2018-12-17T10:58:52.460Z,0.87
2018-12-17T10:59:52.650Z,0.76
2018-12-17T11:01:52.755Z,0.21
2018-12-17T11:02:53.256Z,1.09
2018-12-17T11:03:53.559Z,0.98
2018-12-17T11:04:53.539Z,1.99
2018-12-17T11:05:54.093Z,1.09
2018-12-17T11:06:54.316Z,0.77
2018-12-17T11:07:54.426Z,0.87
2018-12-17T11:08:54.626Z,0.42
2018-12-17T11:09:54.364Z,0.56
2018-12-17T11:10:54.607Z,1.65
2018-12-17T11:11:56.409Z,2.04
2018-12-17T11:12:55.120Z,1.28
2018-12-17T11:13:55.543Z,0.99
2018-12-17T11:14:55.830Z,0.98
2018-12-17T11:15:56.139Z,1.08
2018-12-17T11:16:56.442Z,1.77
2018-12-17T11:17:56.760Z,0.67
2018-12-17T11:18:57.117Z,1.45
2018-12-17T11:19:57.505Z,1.47
2018-12-17T11:20:57.803Z,1.88
2018-12-17T11:21:58.163Z,1.45
2018-12-17T11:22:58.648Z,1.80
2018-12-17T11:23:58.959Z,1.30
2018-12-17T11:24:59.268Z,0.45
2018-12-17T11:25:59.571Z,1.47
2018-12-17T11:26:59.912Z,1.46
2018-12-17T11:28:00.207Z,2.26
2018-12-17T11:29:00.493Z,1.19
2018-12-17T11:30:00.733Z,1.20
2018-12-17T11:31:01.568Z,1.15
2018-12-17T11:32:01.638Z,2.36
2018-12-17T11:33:01.839Z,3.16
2018-12-17T11:34:02.351Z,3.35
2018-12-17T11:35:02.558Z,3.14
2018-12-17T11:36:02.712Z,2.32
2018-12-17T11:37:02.899Z,2.87
2018-12-17T11:38:03.213Z,3.35
2018-12-17T11:39:03.945Z,2.30
2018-12-17T11:40:04.257Z,2.55
2018-12-17T11:41:04.377Z,2.77
2018-12-17T11:42:04.843Z,2.71
2018-12-17T11:43:04.680Z,1.78
2018-12-17T11:44:05.716Z,1.92
2018-12-17T11:45:05.717Z,1.87
2018-12-17T11:46:05.349Z,4.05
2018-12-17T11:47:05.626Z,3.75
2018-12-17T11:48:05.942Z,2.61
2018-12-17T11:49:06.264Z,4.23
2018-12-17T11:50:06.469Z,3.48
2018-12-17T11:51:06.576Z,2.77
2018-12-17T11:52:06.659Z,2.18
2018-12-17T11:53:07.213Z,2.49
2018-12-17T11:54:06.809Z,2.05
2018-12-17T11:55:06.799Z,1.75
2018-12-17T11:56:07.332Z,1.95
2018-12-17T11:57:07.149Z,3.55
2018-12-17T11:58:07.390Z,3.00
2018-12-17T11:59:07.236Z,2.29
2018-12-17T12:00:07.486Z,1.40
2018-12-17T12:01:07.697Z,1.67
2018-12-17T12:02:08.018Z,1.36
2018-12-17T12:03:07.881Z,2.25
2018-12-17T12:04:08.295Z,1.47
2018-12-17T12:06:13.973Z,1.07
2018-12-17T12:07:09.103Z,1.76
2018-12-17T12:09:09.353Z,2.26
2018-12-17T12:10:09.091Z,1.20
2018-12-17T12:11:09.549Z,1.58
2018-12-17T12:12:09.869Z,1.88
2018-12-17T12:13:10.376Z,0.84
2018-12-17T12:14:10.240Z,1.51
2018-12-17T12:15:11.397Z,2.22
2018-12-17T12:16:10.902Z,2.16
2018-12-17T12:17:10.817Z,2.86
2018-12-17T12:18:11.124Z,3.44
2018-12-17T12:19:11.397Z,2.05
2018-12-17T12:20:11.853Z,1.31
2018-12-17T12:21:12.234Z,2.41
2018-12-17T12:22:12.522Z,2.78
2018-12-17T12:23:12.896Z,3.65
2018-12-17T12:24:13.173Z,3.64
2018-12-17T12:25:13.640Z,1.03
2018-12-17T12:26:13.942Z,1.83
2018-12-17T12:27:14.253Z,3.13
2018-12-17T12:28:14.521Z,1.26
2018-12-17T12:29:14.858Z,1.60
2018-12-17T12:30:15.126Z,2.01
2018-12-17T12:31:15.578Z,2.57
2018-12-17T12:32:15.877Z,1.25
2018-12-17T12:33:16.116Z,1.07
2018-12-17T12:34:17.563Z,3.05
2018-12-17T12:35:16.975Z,0.78
2018-12-17T12:36:17.223Z,2.26
2018-12-17T12:37:17.540Z,1.13
2018-12-17T12:38:17.775Z,2.33
2018-12-17T12:39:18.571Z,2.77
2018-12-17T12:40:19.391Z,1.21
2018-12-17T12:41:19.500Z,1.42
2018-12-17T12:42:19.608Z,2.68
2018-12-17T12:43:19.716Z,3.35
2018-12-17T12:44:20.037Z,3.42
2018-12-17T12:45:20.238Z,3.78
2018-12-17T12:46:20.759Z,3.26
2018-12-17T12:47:20.457Z,3.85
2018-12-17T12:48:20.976Z,2.59
2018-12-17T12:49:20.887Z,4.25
2018-12-17T12:50:21.296Z,2.40
2018-12-17T12:51:21.611Z,2.62
2018-12-17T12:52:21.724Z,1.05
2018-12-17T12:53:21.931Z,0.92
2018-12-17T12:54:22.030Z,1.53
2018-12-17T12:55:22.033Z,2.14
2018-12-17T12:56:21.930Z,1.28
2018-12-17T12:57:22.242Z,2.06
2018-12-17T12:58:22.413Z,1.47
2018-12-17T12:59:22.610Z,2.51
2018-12-17T13:00:22.791Z,1.90
2018-12-17T13:01:23.014Z,1.91
2018-12-17T13:02:23.215Z,4.74
2018-12-17T13:03:23.607Z,3.49
2018-12-17T13:04:23.849Z,2.16
2018-12-17T13:05:23.922Z,3.54
2018-12-17T13:06:23.867Z,1.61
2018-12-17T13:07:24.825Z,1.07
2018-12-17T13:08:24.783Z,1.48
2018-12-17T13:09:25.153Z,2.07
2018-12-17T13:10:25.444Z,3.44
2018-12-17T13:11:25.766Z,1.74
2018-12-17T13:12:26.285Z,2.18
2018-12-17T13:13:26.409Z,1.64
2018-12-17T13:14:26.195Z,1.10
2018-12-17T13:15:26.639Z,0.88
2018-12-17T13:16:26.924Z,0.86
2018-12-17T13:17:27.245Z,0.79
2018-12-17T13:18:27.350Z,1.20
2018-12-17T13:19:27.827Z,1.98
2018-12-17T13:20:28.174Z,1.82
2018-12-17T13:21:28.614Z,3.49
2018-12-17T13:22:28.929Z,2.13
2018-12-17T13:24:29.188Z,0.65
2018-12-17T13:25:29.523Z,0.10
2018-12-17T13:26:29.697Z,0.58
2018-12-17T13:27:30.023Z,1.49
2018-12-17T13:28:30.602Z,1.05
2018-12-17T13:29:30.574Z,0.60
2018-12-17T13:30:31.107Z,1.42
2018-12-17T13:31:30.970Z,1.58
2018-12-17T13:32:31.290Z,3.45